createdAt,value
2018-12-18T00:03:59.301Z,39.32
2018-12-18T00:09:08.428Z,42.14
2018-12-18T00:14:17.842Z,37.47
2018-12-18T00:19:26.929Z,43.08
2018-12-18T00:24:36.250Z,50.82
2018-12-18T00:29:45.378Z,49.44
2018-12-18T00:34:54.647Z,53.68
2018-12-18T00:40:03.772Z,38.29
2018-12-18T00:45:13.012Z,47.17
2018-12-18T00:50:22.100Z,48.86
2018-12-18T00:55:31.556Z,44.86
2018-12-18T01:00:39.224Z,39.46
2018-12-18T01:05:48.567Z,45.89
2018-12-18T01:10:57.664Z,49.31
2018-12-18T01:16:06.954Z,47.16
2018-12-18T01:21:16.199Z,45.37
2018-12-18T01:26:25.595Z,58.28
2018-12-18T01:31:34.694Z,72.43
2018-12-18T01:36:44.059Z,74.13
2018-12-18T01:41:53.194Z,49.89
2018-12-18T01:47:02.466Z,81.38
2018-12-18T01:52:11.560Z,64.01
2018-12-18T01:57:21.037Z,60.55
2018-12-18T02:02:30.178Z,72.48
2018-12-18T02:07:39.530Z,75.43
2018-12-18T02:12:48.686Z,80.14
2018-12-18T02:17:57.967Z,51.04
2018-12-18T02:23:07.222Z,80.04
2018-12-18T02:28:16.545Z,75.22
2018-12-18T02:33:25.694Z,56.59
2018-12-18T02:38:35.031Z,51.30
2018-12-18T02:43:44.130Z,51.16
2018-12-18T02:48:53.448Z,72.50
2018-12-18T02:54:02.562Z,50.27
2018-12-18T02:59:11.812Z,45.46
2018-12-18T03:04:21.675Z,53.34
2018-12-18T03:09:30.086Z,63.52
2018-12-18T03:14:39.203Z,65.86
2018-12-18T03:19:48.620Z,50.06
2018-12-18T03:24:57.833Z,39.53
2018-12-18T03:30:07.199Z,51.79
2018-12-18T03:35:16.303Z,56.86
2018-12-18T03:40:25.653Z,56.33
2018-12-18T03:45:34.780Z,60.85
2018-12-18T03:50:44.186Z,49.55
2018-12-18T03:55:53.339Z,66.46
2018-12-18T04:01:02.665Z,65.78
2018-12-18T04:06:11.762Z,43.48
2018-12-18T04:11:21.391Z,55.40
2018-12-18T04:16:30.522Z,46.48
2018-12-18T04:21:39.873Z,51.93
2018-12-18T04:26:49.018Z,63.60
2018-12-18T04:31:58.623Z,55.82
2018-12-18T04:37:07.816Z,51.32
2018-12-18T04:42:17.133Z,50.63
2018-12-18T04:47:26.385Z,54.33
2018-12-18T04:52:35.645Z,53.11
2018-12-18T04:57:44.896Z,62.47
2018-12-18T05:02:54.240Z,39.83
2018-12-18T05:08:03.402Z,55.24
2018-12-18T05:13:12.830Z,49.20
2018-12-18T05:18:21.933Z,54.98
2018-12-18T05:23:31.391Z,63.22
2018-12-18T05:28:40.487Z,43.72
2018-12-18T05:33:49.734Z,49.19
2018-12-18T05:38:58.925Z,61.72
2018-12-18T05:44:08.244Z,57.10
2018-12-18T05:49:17.440Z,61.19
2018-12-18T05:54:26.711Z,51.10
2018-12-18T05:59:35.949Z,59.86
2018-12-18T06:04:45.341Z,56.52
2018-12-18T06:09:53.037Z,50.05
2018-12-18T06:15:02.523Z,43.40
2018-12-18T06:20:11.665Z,42.30
2018-12-18T06:25:21.081Z,38.52
2018-12-18T06:30:30.225Z,28.67
2018-12-18T06:35:39.497Z,39.23
2018-12-18T06:40:48.630Z,33.39
2018-12-18T06:45:59.445Z,35.15
2018-12-18T06:50:58.571Z,34.30
2018-12-18T06:56:08.006Z,31.09
2018-12-18T07:01:17.179Z,38.53
2018-12-18T07:06:27.216Z,39.04
2018-12-18T07:11:26.271Z,42.35
2018-12-18T07:16:35.565Z,37.77
2018-12-18T07:21:44.704Z,42.66
2018-12-18T07:26:53.998Z,38.83
2018-12-18T07:32:03.517Z,42.16
2018-12-18T07:37:12.863Z,48.47
2018-12-18T07:42:20.526Z,42.20
2018-12-18T07:47:28.535Z,47.42
2018-12-18T07:52:37.673Z,50.60
2018-12-18T07:57:46.987Z,48.75
2018-12-18T08:02:56.132Z,45.90
2018-12-18T08:08:04.739Z,47.31
2018-12-18T08:13:12.613Z,40.24
2018-12-18T08:18:22.489Z,49.51
2018-12-18T08:23:31.646Z,51.16
2018-12-18T08:28:40.958Z,46.37
2018-12-18T08:33:50.112Z,37.89
2018-12-18T08:39:00.707Z,47.11
2018-12-18T08:44:00.127Z,38.01
2018-12-18T08:49:09.617Z,35.76
2018-12-18T08:54:18.793Z,24.63
2018-12-18T08:59:26.632Z,32.49
2018-12-18T09:04:35.799Z,31.41
2018-12-18T09:09:45.272Z,34.62
2018-12-18T09:14:54.440Z,31.63
2018-12-18T09:20:03.758Z,29.58
2018-12-18T09:25:12.882Z,31.35
2018-12-18T09:30:20.809Z,30.22
2018-12-18T09:35:30.003Z,29.63
2018-12-18T09:40:39.581Z,25.76
2018-12-18T09:45:48.734Z,26.04
2018-12-18T09:50:59.010Z,19.69
2018-12-18T09:55:58.233Z,22.53
2018-12-18T10:01:08.638Z,26.40
2018-12-18T10:06:08.093Z,24.89
2018-12-18T10:11:17.605Z,22.99
2018-12-18T10:16:26.741Z,25.23
2018-12-18T10:21:36.171Z,22.12
2018-12-18T10:26:45.294Z,23.58
2018-12-18T10:31:55.168Z,23.68
2018-12-18T10:37:04.314Z,21.37
2018-12-18T10:42:12.882Z,21.90
2018-12-18T10:47:22.007Z,17.09
2018-12-18T10:52:31.399Z,17.92
2018-12-18T10:57:40.555Z,15.52
2018-12-18T11:02:49.838Z,18.14
2018-12-18T11:07:58.975Z,20.35
2018-12-18T11:13:07.190Z,17.03
2018-12-18T11:18:16.437Z,21.21
2018-12-18T11:23:25.717Z,21.88
2018-12-18T11:28:34.924Z,16.68
2018-12-18T11:33:44.331Z,18.43
2018-12-18T11:38:53.516Z,16.03
2018-12-18T11:44:02.944Z,16.89
2018-12-18T11:49:12.104Z,12.86
2018-12-18T11:54:21.584Z,19.32
2018-12-18T11:59:30.761Z,15.44
2018-12-18T12:04:40.116Z,16.89
2018-12-18T12:09:49.470Z,13.12
2018-12-18T12:14:59.693Z,15.38
2018-12-18T12:19:57.384Z,16.42
2018-12-18T12:25:06.961Z,15.76
2018-12-18T12:30:16.150Z,15.25
2018-12-18T12:35:25.762Z,14.65
2018-12-18T12:40:35.021Z,17.61
2018-12-18T12:45:43.360Z,13.62
2018-12-18T12:50:52.577Z,10.32
2018-12-18T12:56:02.796Z,10.74
2018-12-18T13:01:01.926Z,10.33
2018-12-18T13:06:11.296Z,11.38
2018-12-18T13:11:20.580Z,11.39
2018-12-18T13:16:29.960Z,14.67
2018-12-18T13:21:39.102Z,12.07
2018-12-18T13:26:49.144Z,10.92
2018-12-18T13:31:48.285Z,11.38
2018-12-18T13:36:58.266Z,11.87
2018-12-18T13:42:07.096Z,12.72
2018-12-18T13:47:16.445Z,12.65
2018-12-18T13:52:24.334Z,10.86
2018-12-18T13:57:33.843Z,10.39
2018-12-18T14:02:44.118Z,10.34
2018-12-18T14:07:43.752Z,11.38
2018-12-18T14:12:52.898Z,11.50
2018-12-18T14:18:02.311Z,13.06
2018-12-18T14:23:10.008Z,10.35
2018-12-18T14:28:19.714Z,10.24
2018-12-18T14:33:28.991Z,11.66
2018-12-18T14:38:38.337Z,7.93
2018-12-18T14:43:47.656Z,9.78
2018-12-18T14:48:57.193Z,10.20
2018-12-18T14:54:06.465Z,8.95
2018-12-18T14:59:15.873Z,205.35
2018-12-18T15:04:25.055Z,25.25
2018-12-18T15:09:34.938Z,11.63
2018-12-18T15:14:44.030Z,11.47
2018-12-18T15:19:54.157Z,9.84
2018-12-18T15:24:53.287Z,8.02
2018-12-18T15:30:01.098Z,9.15
2018-12-18T15:35:10.233Z,13.36
2018-12-18T15:40:19.599Z,23.67
2018-12-18T15:45:29.873Z,8.52
2018-12-18T15:50:38.692Z,10.41
2018-12-18T15:55:37.823Z,9.18
2018-12-18T16:00:47.154Z,10.88
2018-12-18T16:05:57.261Z,8.06
2018-12-18T16:10:56.501Z,9.04
2018-12-18T16:16:05.677Z,9.57
2018-12-18T16:21:17.016Z,9.45
2018-12-18T16:26:18.166Z,10.82
2018-12-18T16:31:17.753Z,9.62
2018-12-18T16:36:26.928Z,8.66
2018-12-18T16:41:36.274Z,9.97
2018-12-18T16:46:45.457Z,8.01
2018-12-18T16:51:54.738Z,8.22
2018-12-18T16:57:13.106Z,6.61
2018-12-18T17:02:05.518Z,9.57
2018-12-18T17:07:14.744Z,7.74
2018-12-18T17:12:27.342Z,5.78
2018-12-18T17:17:26.490Z,6.21
2018-12-18T17:22:36.002Z,8.44
2018-12-18T17:27:45.153Z,10.66
2018-12-18T17:32:54.468Z,9.03
2018-12-18T17:38:03.799Z,7.64
2018-12-18T17:43:14.978Z,7.62
2018-12-18T17:48:14.073Z,7.46
2018-12-18T17:53:23.393Z,4.14
2018-12-18T17:58:32.673Z,8.49
2018-12-18T18:03:40.759Z,5.81
2018-12-18T18:08:50.238Z,6.27
2018-12-18T18:13:59.622Z,9.53
2018-12-18T18:19:09.120Z,11.12
2018-12-18T18:24:16.962Z,10.77
2018-12-18T18:29:26.553Z,7.22
2018-12-18T18:34:37.824Z,9.24
2018-12-18T18:39:37.012Z,8.40
2018-12-18T18:44:48.657Z,5.47
2018-12-18T18:49:47.790Z,7.55
2018-12-18T18:54:55.636Z,8.22
2018-12-18T19:00:04.777Z,9.58
2018-12-18T19:05:14.119Z,8.38
2018-12-18T19:10:23.282Z,9.24
2018-12-18T19:15:32.587Z,10.56
2018-12-18T19:20:41.744Z,8.72
2018-12-18T19:25:51.206Z,9.36
2018-12-18T19:31:00.393Z,21.74
2018-12-18T19:36:09.774Z,7.38
2018-12-18T19:41:19.234Z,7.96
2018-12-18T19:46:28.866Z,10.65
2018-12-18T19:51:38.013Z,8.37
2018-12-18T19:56:47.730Z,10.40
2018-12-18T20:01:56.885Z,9.13
2018-12-18T20:07:06.243Z,11.54
2018-12-18T20:12:15.389Z,7.38
2018-12-18T20:17:25.337Z,9.79
2018-12-18T20:22:33.139Z,5.88
2018-12-18T20:27:42.572Z,7.03
2018-12-18T20:32:50.218Z,7.64
2018-12-18T20:38:00.130Z,6.41
2018-12-18T20:43:08.583Z,7.66
2018-12-18T20:48:19.093Z,6.51
2018-12-18T20:53:27.290Z,7.79
2018-12-18T20:58:36.557Z,6.55
2018-12-18T21:03:45.676Z,7.45
2018-12-18T21:08:55.073Z,7.92
2018-12-18T21:14:05.249Z,5.96
2018-12-18T21:19:04.523Z,4.30
2018-12-18T21:24:13.734Z,6.94
2018-12-18T21:29:25.722Z,7.75
2018-12-18T21:34:24.868Z,6.44
2018-12-18T21:39:34.323Z,9.36
2018-12-18T21:44:43.619Z,7.89
2018-12-18T21:49:53.598Z,7.44
2018-12-18T21:55:02.706Z,8.62
2018-12-18T22:00:12.362Z,6.40
2018-12-18T22:05:24.441Z,6.09
2018-12-18T22:10:23.729Z,7.22
2018-12-18T22:15:32.865Z,5.49
2018-12-18T22:20:43.046Z,4.45
2018-12-18T22:25:42.232Z,5.82
2018-12-18T22:30:57.161Z,7.12
2018-12-18T22:35:56.292Z,5.33
2018-12-18T22:41:06.681Z,6.48
2018-12-18T22:46:05.733Z,6.11
2018-12-18T22:51:15.526Z,7.35
2018-12-18T22:56:24.728Z,7.16
2018-12-18T23:01:33.997Z,7.86
2018-12-18T23:06:45.977Z,4.04
2018-12-18T23:11:45.286Z,5.61
2018-12-18T23:16:56.036Z,5.74
2018-12-18T23:21:55.863Z,5.56
2018-12-18T23:27:05.017Z,6.57
2018-12-18T23:32:14.298Z,8.36
2018-12-18T23:37:23.562Z,5.98
2018-12-18T23:42:34.136Z,4.57
2018-12-18T23:47:37.341Z,5.51
2018-12-18T23:52:37.167Z,5.53
2018-12-18T23:57:44.811Z,6.28
